sensor_id;sensor_type;location;lat;lon;timestamp;temperature;humidity
11446;DHT22;5779;64.178;15.432;2022-11-14T00:02:22;0.60;99.90
11446;DHT22;5779;64.178;15.432;2022-11-14T00:05:09;0.60;99.90
11446;DHT22;5779;64.178;15.432;2022-11-14T00:07:56;0.60;99.90
11446;DHT22;5779;64.178;15.432;2022-11-14T00:10:45;0.70;99.90
11446;DHT22;5779;64.178;15.432;2022-11-14T00:13:31;0.80;99.90
11446;DHT22;5779;64.178;15.432;2022-11-14T00:16:18;0.60;99.90
11446;DHT22;5779;64.178;15.432;2022-11-14T00:19:06;0.50;99.90
11446;DHT22;5779;64.178;15.432;2022-11-14T00:21:53;0.60;99.90
11446;DHT22;5779;64.178;15.432;2022-11-14T00:24:39;0.80;99.90
11446;DHT22;5779;64.178;15.432;2022-11-14T00:27:26;0.70;99.90
11446;DHT22;5779;64.178;15.432;2022-11-14T00:30:14;0.60;99.90
11446;DHT22;5779;64.178;15.432;2022-11-14T00:33:00;0.60;99.90
11446;DHT22;5779;64.178;15.432;2022-11-14T00:35:53;0.80;99.90
11446;DHT22;5779;64.178;15.432;2022-11-14T00:38:40;1.00;99.90
11446;DHT22;5779;64.178;15.432;2022-11-14T00:41:27;1.30;99.90
11446;DHT22;5779;64.178;15.432;2022-11-14T00:44:14;1.50;99.90
11446;DHT22;5779;64.178;15.432;2022-11-14T00:47:01;1.40;99.90
11446;DHT22;5779;64.178;15.432;2022-11-14T00:49:47;1.30;99.90
11446;DHT22;5779;64.178;15.432;2022-11-14T00:52:35;1.30;99.90
11446;DHT22;5779;64.178;15.432;2022-11-14T00:55:22;1.40;99.90
11446;DHT22;5779;64.178;15.432;2022-11-14T00:58:09;1.30;99.90
11446;DHT22;5779;64.178;15.432;2022-11-14T01:00:56;1.40;99.90
11446;DHT22;5779;64.178;15.432;2022-11-14T01:03:47;1.40;99.90
11446;DHT22;5779;64.178;15.432;2022-11-14T01:06:34;1.10;99.90
11446;DHT22;5779;64.178;15.432;2022-11-14T01:09:22;0.90;99.90
11446;DHT22;5779;64.178;15.432;2022-11-14T01:12:09;0.80;99.90
11446;DHT22;5779;64.178;15.432;2022-11-14T01:14:56;0.80;99.90
11446;DHT22;5779;64.178;15.432;2022-11-14T01:17:43;0.70;99.90
11446;DHT22;5779;64.178;15.432;2022-11-14T01:20:30;0.70;99.90
11446;DHT22;5779;64.178;15.432;2022-11-14T01:23:17;0.70;99.90
11446;DHT22;5779;64.178;15.432;2022-11-14T01:26:07;0.90;99.90
11446;DHT22;5779;64.178;15.432;2022-11-14T01:28:54;0.70;99.90
11446;DHT22;5779;64.178;15.432;2022-11-14T01:31:41;0.70;99.90
11446;DHT22;5779;64.178;15.432;2022-11-14T01:34:28;0.80;99.90
11446;DHT22;5779;64.178;15.432;2022-11-14T01:37:15;0.90;99.90
11446;DHT22;5779;64.178;15.432;2022-11-14T01:40:01;1.20;99.90
11446;DHT22;5779;64.178;15.432;2022-11-14T01:46:13;0.90;99.90
11446;DHT22;5779;64.178;15.432;2022-11-14T01:49:02;1.00;99.90
11446;DHT22;5779;64.178;15.432;2022-11-14T01:51:53;0.80;99.90
11446;DHT22;5779;64.178;15.432;2022-11-14T01:54:44;0.80;99.90
11446;DHT22;5779;64.178;15.432;2022-11-14T01:57:35;0.70;99.90
11446;DHT22;5779;64.178;15.432;2022-11-14T02:00:22;0.60;99.90
11446;DHT22;5779;64.178;15.432;2022-11-14T02:03:11;0.70;99.90
11446;DHT22;5779;64.178;15.432;2022-11-14T02:05:59;0.90;99.90
11446;DHT22;5779;64.178;15.432;2022-11-14T02:08:48;0.80;99.90
11446;DHT22;5779;64.178;15.432;2022-11-14T02:11:39;0.60;99.90
11446;DHT22;5779;64.178;15.432;2022-11-14T02:14:28;0.60;99.90
11446;DHT22;5779;64.178;15.432;2022-11-14T02:17:17;0.90;99.90
11446;DHT22;5779;64.178;15.432;2022-11-14T02:20:17;1.10;99.90
11446;DHT22;5779;64.178;15.432;2022-11-14T02:23:04;1.20;99.90
11446;DHT22;5779;64.178;15.432;2022-11-14T02:25:51;1.10;99.90
11446;DHT22;5779;64.178;15.432;2022-11-14T02:28:38;1.00;99.90
11446;DHT22;5779;64.178;15.432;2022-11-14T02:31:25;0.90;99.90
11446;DHT22;5779;64.178;15.432;2022-11-14T02:34:12;0.90;99.90
11446;DHT22;5779;64.178;15.432;2022-11-14T02:37:02;1.00;99.90
11446;DHT22;5779;64.178;15.432;2022-11-14T02:39:49;1.00;99.90
11446;DHT22;5779;64.178;15.432;2022-11-14T02:42:36;0.90;99.90
11446;DHT22;5779;64.178;15.432;2022-11-14T02:45:23;1.10;99.90
11446;DHT22;5779;64.178;15.432;2022-11-14T02:48:10;1.20;99.90
11446;DHT22;5779;64.178;15.432;2022-11-14T02:50:56;1.40;99.90
11446;DHT22;5779;64.178;15.432;2022-11-14T02:53:45;1.20;99.90
11446;DHT22;5779;64.178;15.432;2022-11-14T02:56:31;1.00;99.90
11446;DHT22;5779;64.178;15.432;2022-11-14T02:59:18;0.50;99.90
11446;DHT22;5779;64.178;15.432;2022-11-14T03:02:05;0.40;99.90
11446;DHT22;5779;64.178;15.432;2022-11-14T03:04:52;0.40;99.90
11446;DHT22;5779;64.178;15.432;2022-11-14T03:07:39;0.60;99.90
11446;DHT22;5779;64.178;15.432;2022-11-14T03:10:27;0.80;99.90
11446;DHT22;5779;64.178;15.432;2022-11-14T03:13:14;0.90;99.90
11446;DHT22;5779;64.178;15.432;2022-11-14T03:16:05;1.00;99.90
11446;DHT22;5779;64.178;15.432;2022-11-14T03:18:52;1.10;99.90
11446;DHT22;5779;64.178;15.432;2022-11-14T03:21:39;1.10;99.90
11446;DHT22;5779;64.178;15.432;2022-11-14T03:24:26;1.00;99.90
11446;DHT22;5779;64.178;15.432;2022-11-14T03:27:14;1.00;99.90
11446;DHT22;5779;64.178;15.432;2022-11-14T03:30:01;0.80;99.90
11446;DHT22;5779;64.178;15.432;2022-11-14T03:32:48;1.10;99.90
11446;DHT22;5779;64.178;15.432;2022-11-14T03:35:35;1.10;99.90
11446;DHT22;5779;64.178;15.432;2022-11-14T03:38:22;1.20;99.90
11446;DHT22;5779;64.178;15.432;2022-11-14T03:41:09;1.20;99.90
11446;DHT22;5779;64.178;15.432;2022-11-14T03:43:57;1.20;99.90
11446;DHT22;5779;64.178;15.432;2022-11-14T03:46:44;0.90;99.90
11446;DHT22;5779;64.178;15.432;2022-11-14T03:49:31;0.60;99.90
11446;DHT22;5779;64.178;15.432;2022-11-14T03:52:18;0.70;99.90
11446;DHT22;5779;64.178;15.432;2022-11-14T03:55:05;0.90;99.90
11446;DHT22;5779;64.178;15.432;2022-11-14T03:57:52;1.00;99.90
11446;DHT22;5779;64.178;15.432;2022-11-14T04:00:41;1.00;99.90
11446;DHT22;5779;64.178;15.432;2022-11-14T04:03:27;0.70;99.90
11446;DHT22;5779;64.178;15.432;2022-11-14T04:06:14;0.60;99.90
11446;DHT22;5779;64.178;15.432;2022-11-14T04:09:01;0.60;99.90
11446;DHT22;5779;64.178;15.432;2022-11-14T04:11:48;0.80;99.90
11446;DHT22;5779;64.178;15.432;2022-11-14T04:14:36;0.90;99.90
11446;DHT22;5779;64.178;15.432;2022-11-14T04:17:25;0.80;99.90
11446;DHT22;5779;64.178;15.432;2022-11-14T04:20:12;0.70;99.90
11446;DHT22;5779;64.178;15.432;2022-11-14T04:22:59;0.60;99.90
11446;DHT22;5779;64.178;15.432;2022-11-14T04:25:46;0.80;99.90
11446;DHT22;5779;64.178;15.432;2022-11-14T04:28:33;0.90;99.90
11446;DHT22;5779;64.178;15.432;2022-11-14T04:31:20;1.20;99.90
11446;DHT22;5779;64.178;15.432;2022-11-14T04:34:08;1.20;99.90
11446;DHT22;5779;64.178;15.432;2022-11-14T04:36:55;1.30;99.90
11446;DHT22;5779;64.178;15.432;2022-11-14T04:39:42;1.30;99.90
11446;DHT22;5779;64.178;15.432;2022-11-14T04:42:29;1.30;99.90
11446;DHT22;5779;64.178;15.432;2022-11-14T04:45:16;1.40;99.90
11446;DHT22;5779;64.178;15.432;2022-11-14T04:48:03;1.40;99.90
11446;DHT22;5779;64.178;15.432;2022-11-14T04:50:51;1.40;99.90
11446;DHT22;5779;64.178;15.432;2022-11-14T04:53:38;1.40;99.90
11446;DHT22;5779;64.178;15.432;2022-11-14T04:56:25;1.50;99.90
11446;DHT22;5779;64.178;15.432;2022-11-14T04:59:12;1.60;99.90
11446;DHT22;5779;64.178;15.432;2022-11-14T05:01:58;1.60;99.90
11446;DHT22;5779;64.178;15.432;2022-11-14T05:04:45;1.60;99.90
11446;DHT22;5779;64.178;15.432;2022-11-14T05:07:33;1.60;99.90
11446;DHT22;5779;64.178;15.432;2022-11-14T05:10:20;1.60;99.90
11446;DHT22;5779;64.178;15.432;2022-11-14T05:13:07;1.70;99.90
11446;DHT22;5779;64.178;15.432;2022-11-14T05:15:57;1.60;99.90
11446;DHT22;5779;64.178;15.432;2022-11-14T05:18:44;1.90;99.90
11446;DHT22;5779;64.178;15.432;2022-11-14T05:21:31;2.00;99.90
11446;DHT22;5779;64.178;15.432;2022-11-14T05:24:20;1.90;99.90
11446;DHT22;5779;64.178;15.432;2022-11-14T05:27:06;1.80;99.90
11446;DHT22;5779;64.178;15.432;2022-11-14T05:29:53;1.80;99.90
11446;DHT22;5779;64.178;15.432;2022-11-14T05:32:40;1.70;99.90
11446;DHT22;5779;64.178;15.432;2022-11-14T05:35:27;1.70;99.90
11446;DHT22;5779;64.178;15.432;2022-11-14T05:38:14;1.80;99.90
11446;DHT22;5779;64.178;15.432;2022-11-14T05:41:06;1.80;99.90
11446;DHT22;5779;64.178;15.432;2022-11-14T05:43:53;1.30;99.90
11446;DHT22;5779;64.178;15.432;2022-11-14T05:46:40;1.10;99.90
11446;DHT22;5779;64.178;15.432;2022-11-14T05:49:27;0.90;99.90
11446;DHT22;5779;64.178;15.432;2022-11-14T05:52:14;0.80;99.90
11446;DHT22;5779;64.178;15.432;2022-11-14T05:55:01;0.80;99.90
11446;DHT22;5779;64.178;15.432;2022-11-14T05:57:49;0.80;99.90
11446;DHT22;5779;64.178;15.432;2022-11-14T06:00:36;0.70;99.90
11446;DHT22;5779;64.178;15.432;2022-11-14T06:03:23;0.60;99.90
11446;DHT22;5779;64.178;15.432;2022-11-14T06:06:11;0.70;99.90
11446;DHT22;5779;64.178;15.432;2022-11-14T06:08:58;0.80;99.90
11446;DHT22;5779;64.178;15.432;2022-11-14T06:11:45;0.90;99.90
11446;DHT22;5779;64.178;15.432;2022-11-14T06:14:33;1.10;99.90
11446;DHT22;5779;64.178;15.432;2022-11-14T06:17:20;1.20;99.90
11446;DHT22;5779;64.178;15.432;2022-11-14T06:20:08;1.20;99.90
11446;DHT22;5779;64.178;15.432;2022-11-14T06:22:57;1.20;99.90
11446;DHT22;5779;64.178;15.432;2022-11-14T06:25:44;1.40;99.90
11446;DHT22;5779;64.178;15.432;2022-11-14T06:28:31;1.40;99.90
11446;DHT22;5779;64.178;15.432;2022-11-14T06:31:20;1.20;99.90
11446;DHT22;5779;64.178;15.432;2022-11-14T06:34:07;0.90;99.90
11446;DHT22;5779;64.178;15.432;2022-11-14T06:36:53;0.80;99.90
11446;DHT22;5779;64.178;15.432;2022-11-14T06:39:40;0.50;99.90
11446;DHT22;5779;64.178;15.432;2022-11-14T06:42:27;0.60;99.90
11446;DHT22;5779;64.178;15.432;2022-11-14T06:45:14;0.60;99.90
11446;DHT22;5779;64.178;15.432;2022-11-14T06:48:02;0.70;99.90
11446;DHT22;5779;64.178;15.432;2022-11-14T06:50:53;0.60;99.90
11446;DHT22;5779;64.178;15.432;2022-11-14T06:53:40;0.80;99.90
11446;DHT22;5779;64.178;15.432;2022-11-14T06:56:27;0.90;99.90
11446;DHT22;5779;64.178;15.432;2022-11-14T06:59:14;1.10;99.90
11446;DHT22;5779;64.178;15.432;2022-11-14T07:02:01;1.20;99.90
11446;DHT22;5779;64.178;15.432;2022-11-14T07:04:49;1.30;99.90
11446;DHT22;5779;64.178;15.432;2022-11-14T07:07:36;1.50;99.90
11446;DHT22;5779;64.178;15.432;2022-11-14T07:10:23;1.60;99.90
11446;DHT22;5779;64.178;15.432;2022-11-14T07:13:10;1.60;99.90
11446;DHT22;5779;64.178;15.432;2022-11-14T07:15:57;1.60;99.90
11446;DHT22;5779;64.178;15.432;2022-11-14T07:18:44;1.50;99.90
11446;DHT22;5779;64.178;15.432;2022-11-14T07:21:33;1.10;99.90
11446;DHT22;5779;64.178;15.432;2022-11-14T07:24:20;1.00;99.90
11446;DHT22;5779;64.178;15.432;2022-11-14T07:27:07;1.10;99.90
11446;DHT22;5779;64.178;15.432;2022-11-14T07:29:56;1.00;99.90
11446;DHT22;5779;64.178;15.432;2022-11-14T07:32:43;1.10;99.90
11446;DHT22;5779;64.178;15.432;2022-11-14T07:35:29;1.20;99.90
11446;DHT22;5779;64.178;15.432;2022-11-14T07:38:18;1.30;99.90
11446;DHT22;5779;64.178;15.432;2022-11-14T07:41:07;1.40;99.90
11446;DHT22;5779;64.178;15.432;2022-11-14T07:43:54;1.50;99.90
11446;DHT22;5779;64.178;15.432;2022-11-14T07:46:41;1.40;99.90
11446;DHT22;5779;64.178;15.432;2022-11-14T07:49:28;1.40;99.90
11446;DHT22;5779;64.178;15.432;2022-11-14T07:52:14;1.50;99.90
11446;DHT22;5779;64.178;15.432;2022-11-14T07:55:03;1.60;99.90
11446;DHT22;5779;64.178;15.432;2022-11-14T07:57:52;1.70;99.90
11446;DHT22;5779;64.178;15.432;2022-11-14T08:00:39;1.80;99.90
11446;DHT22;5779;64.178;15.432;2022-11-14T08:03:26;2.10;99.90
11446;DHT22;5779;64.178;15.432;2022-11-14T08:06:13;2.20;99.90
11446;DHT22;5779;64.178;15.432;2022-11-14T08:09:00;2.10;99.90
11446;DHT22;5779;64.178;15.432;2022-11-14T08:11:49;2.10;99.90
11446;DHT22;5779;64.178;15.432;2022-11-14T08:14:36;2.10;99.90
11446;DHT22;5779;64.178;15.432;2022-11-14T08:17:23;2.00;99.90
11446;DHT22;5779;64.178;15.432;2022-11-14T08:20:10;2.00;99.90
11446;DHT22;5779;64.178;15.432;2022-11-14T08:23:01;2.10;99.90
11446;DHT22;5779;64.178;15.432;2022-11-14T08:25:48;2.00;99.90
11446;DHT22;5779;64.178;15.432;2022-11-14T08:28:36;2.10;99.90
11446;DHT22;5779;64.178;15.432;2022-11-14T08:31:23;2.00;99.90
11446;DHT22;5779;64.178;15.432;2022-11-14T08:34:10;2.00;99.90
11446;DHT22;5779;64.178;15.432;2022-11-14T08:36:57;1.90;99.90
11446;DHT22;5779;64.178;15.432;2022-11-14T08:39:44;2.00;99.90
11446;DHT22;5779;64.178;15.432;2022-11-14T08:42:31;2.10;99.90
11446;DHT22;5779;64.178;15.432;2022-11-14T08:45:19;2.10;99.90
11446;DHT22;5779;64.178;15.432;2022-11-14T08:48:06;2.10;99.90
11446;DHT22;5779;64.178;15.432;2022-11-14T08:50:53;2.20;99.90
11446;DHT22;5779;64.178;15.432;2022-11-14T08:53:40;2.20;99.90
11446;DHT22;5779;64.178;15.432;2022-11-14T08:56:27;2.30;99.90
11446;DHT22;5779;64.178;15.432;2022-11-14T08:59:14;2.30;99.90
11446;DHT22;5779;64.178;15.432;2022-11-14T09:02:09;2.50;99.90
11446;DHT22;5779;64.178;15.432;2022-11-14T09:05:01;2.30;99.90
11446;DHT22;5779;64.178;15.432;2022-11-14T09:07:49;2.30;99.90
11446;DHT22;5779;64.178;15.432;2022-11-14T09:10:38;2.30;99.90
11446;DHT22;5779;64.178;15.432;2022-11-14T09:13:24;2.30;99.90
11446;DHT22;5779;64.178;15.432;2022-11-14T09:16:11;2.40;99.90
11446;DHT22;5779;64.178;15.432;2022-11-14T09:19:00;2.40;99.90
11446;DHT22;5779;64.178;15.432;2022-11-14T09:21:46;2.30;99.90
11446;DHT22;5779;64.178;15.432;2022-11-14T09:24:33;2.30;99.90
11446;DHT22;5779;64.178;15.432;2022-11-14T09:27:20;2.40;99.90
11446;DHT22;5779;64.178;15.432;2022-11-14T09:30:08;2.50;99.90
11446;DHT22;5779;64.178;15.432;2022-11-14T09:32:58;2.60;99.90
11446;DHT22;5779;64.178;15.432;2022-11-14T09:35:47;2.60;99.90
11446;DHT22;5779;64.178;15.432;2022-11-14T09:38:34;2.50;99.90
11446;DHT22;5779;64.178;15.432;2022-11-14T09:41:25;2.50;99.90
11446;DHT22;5779;64.178;15.432;2022-11-14T09:44:31;2.60;99.90
11446;DHT22;5779;64.178;15.432;2022-11-14T09:47:27;2.70;99.90
11446;DHT22;5779;64.178;15.432;2022-11-14T09:50:16;2.60;99.90
11446;DHT22;5779;64.178;15.432;2022-11-14T09:53:09;2.50;99.90
11446;DHT22;5779;64.178;15.432;2022-11-14T09:56:00;2.30;99.90
11446;DHT22;5779;64.178;15.432;2022-11-14T09:58:47;2.30;99.90
11446;DHT22;5779;64.178;15.432;2022-11-14T10:01:40;2.40;99.90
11446;DHT22;5779;64.178;15.432;2022-11-14T10:04:42;2.50;99.90
11446;DHT22;5779;64.178;15.432;2022-11-14T10:07:40;2.60;99.90
11446;DHT22;5779;64.178;15.432;2022-11-14T10:10:42;2.60;99.90
11446;DHT22;5779;64.178;15.432;2022-11-14T10:13:48;2.60;99.90
11446;DHT22;5779;64.178;15.432;2022-11-14T10:16:43;2.60;99.90
11446;DHT22;5779;64.178;15.432;2022-11-14T10:19:39;2.60;99.90
11446;DHT22;5779;64.178;15.432;2022-11-14T10:22:41;2.80;99.90
11446;DHT22;5779;64.178;15.432;2022-11-14T10:25:37;2.70;99.90
11446;DHT22;5779;64.178;15.432;2022-11-14T10:29:00;2.70;99.90
11446;DHT22;5779;64.178;15.432;2022-11-14T10:31:54;2.80;99.90
11446;DHT22;5779;64.178;15.432;2022-11-14T10:34:47;2.60;99.90
11446;DHT22;5779;64.178;15.432;2022-11-14T10:37:38;2.50;99.90
11446;DHT22;5779;64.178;15.432;2022-11-14T10:40:36;2.40;99.90
11446;DHT22;5779;64.178;15.432;2022-11-14T10:43:29;2.60;99.90
11446;DHT22;5779;64.178;15.432;2022-11-14T10:46:20;2.60;99.90
11446;DHT22;5779;64.178;15.432;2022-11-14T10:49:17;2.70;99.90
11446;DHT22;5779;64.178;15.432;2022-11-14T10:52:08;2.60;99.90
11446;DHT22;5779;64.178;15.432;2022-11-14T10:54:59;2.50;99.90
11446;DHT22;5779;64.178;15.432;2022-11-14T10:57:50;2.60;99.90
11446;DHT22;5779;64.178;15.432;2022-11-14T11:00:38;2.60;99.90
11446;DHT22;5779;64.178;15.432;2022-11-14T11:03:40;2.60;99.90
11446;DHT22;5779;64.178;15.432;2022-11-14T11:06:28;2.70;99.90
11446;DHT22;5779;64.178;15.432;2022-11-14T11:09:16;2.80;99.90
11446;DHT22;5779;64.178;15.432;2022-11-14T11:12:22;2.80;99.90
11446;DHT22;5779;64.178;15.432;2022-11-14T11:15:13;2.90;99.90
11446;DHT22;5779;64.178;15.432;2022-11-14T11:18:04;2.90;99.90
11446;DHT22;5779;64.178;15.432;2022-11-14T11:21:02;2.90;99.90
11446;DHT22;5779;64.178;15.432;2022-11-14T11:23:51;2.80;99.90
11446;DHT22;5779;64.178;15.432;2022-11-14T11:26:38;2.80;99.90
11446;DHT22;5779;64.178;15.432;2022-11-14T11:29:25;2.80;99.90
11446;DHT22;5779;64.178;15.432;2022-11-14T11:32:23;2.90;99.90
11446;DHT22;5779;64.178;15.432;2022-11-14T11:35:15;2.90;99.90
11446;DHT22;5779;64.178;15.432;2022-11-14T11:38:02;2.70;99.90
11446;DHT22;5779;64.178;15.432;2022-11-14T11:40:52;2.90;99.90
11446;DHT22;5779;64.178;15.432;2022-11-14T11:43:44;2.70;99.90
11446;DHT22;5779;64.178;15.432;2022-11-14T11:46:34;2.80;99.90
11446;DHT22;5779;64.178;15.432;2022-11-14T11:49:32;2.80;99.90
11446;DHT22;5779;64.178;15.432;2022-11-14T11:52:29;2.80;99.90
11446;DHT22;5779;64.178;15.432;2022-11-14T11:55:20;2.90;99.90
11446;DHT22;5779;64.178;15.432;2022-11-14T11:58:13;3.00;99.90
11446;DHT22;5779;64.178;15.432;2022-11-14T12:01:01;2.70;99.90
11446;DHT22;5779;64.178;15.432;2022-11-14T12:03:50;2.70;99.90
11446;DHT22;5779;64.178;15.432;2022-11-14T12:06:43;2.60;99.90
11446;DHT22;5779;64.178;15.432;2022-11-14T12:09:38;2.60;99.90
11446;DHT22;5779;64.178;15.432;2022-11-14T12:12:33;2.70;99.90
11446;DHT22;5779;64.178;15.432;2022-11-14T12:15:30;2.80;99.90
11446;DHT22;5779;64.178;15.432;2022-11-14T12:18:49;2.90;99.90
11446;DHT22;5779;64.178;15.432;2022-11-14T12:22:03;2.90;99.90
11446;DHT22;5779;64.178;15.432;2022-11-14T12:28:30;3.00;99.90
11446;DHT22;5779;64.178;15.432;2022-11-14T12:31:20;3.20;99.90
11446;DHT22;5779;64.178;15.432;2022-11-14T12:34:14;3.20;99.90
11446;DHT22;5779;64.178;15.432;2022-11-14T12:37:07;3.10;99.90
11446;DHT22;5779;64.178;15.432;2022-11-14T12:39:56;3.30;99.90
11446;DHT22;5779;64.178;15.432;2022-11-14T12:42:46;3.00;99.90
11446;DHT22;5779;64.178;15.432;2022-11-14T12:45:56;2.60;99.90
11446;DHT22;5779;64.178;15.432;2022-11-14T12:48:45;2.30;99.90
11446;DHT22;5779;64.178;15.432;2022-11-14T12:51:49;2.10;99.90
11446;DHT22;5779;64.178;15.432;2022-11-14T12:54:44;2.40;99.90
11446;DHT22;5779;64.178;15.432;2022-11-14T12:57:37;2.30;99.90
11446;DHT22;5779;64.178;15.432;2022-11-14T13:00:36;2.30;99.90
11446;DHT22;5779;64.178;15.432;2022-11-14T13:03:36;2.50;99.90
11446;DHT22;5779;64.178;15.432;2022-11-14T13:06:28;2.60;99.90
11446;DHT22;5779;64.178;15.432;2022-11-14T13:09:33;2.90;99.90
11446;DHT22;5779;64.178;15.432;2022-11-14T13:12:30;3.00;99.90
11446;DHT22;5779;64.178;15.432;2022-11-14T13:15:47;3.10;99.90
11446;DHT22;5779;64.178;15.432;2022-11-14T13:18:54;3.10;99.90
11446;DHT22;5779;64.178;15.432;2022-11-14T13:25:27;3.10;99.90
11446;DHT22;5779;64.178;15.432;2022-11-14T13:28:42;3.20;99.90
11446;DHT22;5779;64.178;15.432;2022-11-14T13:31:45;3.20;99.90
11446;DHT22;5779;64.178;15.432;2022-11-14T13:34:49;3.20;99.90
11446;DHT22;5779;64.178;15.432;2022-11-14T13:40:54;3.10;99.90
11446;DHT22;5779;64.178;15.432;2022-11-14T13:43:55;2.60;99.90
11446;DHT22;5779;64.178;15.432;2022-11-14T13:47:00;2.40;99.90
11446;DHT22;5779;64.178;15.432;2022-11-14T13:49:58;2.30;99.90
11446;DHT22;5779;64.178;15.432;2022-11-14T13:52:47;2.40;99.90
11446;DHT22;5779;64.178;15.432;2022-11-14T13:55:43;2.70;99.90
11446;DHT22;5779;64.178;15.432;2022-11-14T14:02:24;3.00;99.90
11446;DHT22;5779;64.178;15.432;2022-11-14T14:05:24;3.10;99.90
11446;DHT22;5779;64.178;15.432;2022-11-14T14:08:22;3.10;99.90
11446;DHT22;5779;64.178;15.432;2022-11-14T14:11:31;2.90;99.90
11446;DHT22;5779;64.178;15.432;2022-11-14T14:14:33;3.10;99.90
11446;DHT22;5779;64.178;15.432;2022-11-14T14:17:31;3.20;99.90
11446;DHT22;5779;64.178;15.432;2022-11-14T14:20:32;3.00;99.90
11446;DHT22;5779;64.178;15.432;2022-11-14T14:23:28;3.00;99.90
11446;DHT22;5779;64.178;15.432;2022-11-14T14:26:23;3.10;99.90
11446;DHT22;5779;64.178;15.432;2022-11-14T14:29:21;3.20;99.90
11446;DHT22;5779;64.178;15.432;2022-11-14T14:32:13;3.20;99.90
11446;DHT22;5779;64.178;15.432;2022-11-14T14:35:20;3.30;99.90
11446;DHT22;5779;64.178;15.432;2022-11-14T14:38:11;3.40;99.90
11446;DHT22;5779;64.178;15.432;2022-11-14T14:40:58;3.10;99.90
11446;DHT22;5779;64.178;15.432;2022-11-14T14:43:50;2.80;99.90
11446;DHT22;5779;64.178;15.432;2022-11-14T14:46:38;2.70;99.90
11446;DHT22;5779;64.178;15.432;2022-11-14T14:49:27;2.90;99.90
11446;DHT22;5779;64.178;15.432;2022-11-14T14:52:28;3.00;99.90
11446;DHT22;5779;64.178;15.432;2022-11-14T14:55:20;3.10;99.90
11446;DHT22;5779;64.178;15.432;2022-11-14T14:58:14;3.30;99.90
11446;DHT22;5779;64.178;15.432;2022-11-14T15:01:02;3.30;99.90
11446;DHT22;5779;64.178;15.432;2022-11-14T15:03:52;3.30;99.90
11446;DHT22;5779;64.178;15.432;2022-11-14T15:06:44;3.30;99.90
11446;DHT22;5779;64.178;15.432;2022-11-14T15:09:33;3.40;99.90
11446;DHT22;5779;64.178;15.432;2022-11-14T15:12:20;3.30;99.90
11446;DHT22;5779;64.178;15.432;2022-11-14T15:15:12;3.10;99.90
11446;DHT22;5779;64.178;15.432;2022-11-14T15:18:01;3.10;99.90
11446;DHT22;5779;64.178;15.432;2022-11-14T15:21:12;3.10;99.90
11446;DHT22;5779;64.178;15.432;2022-11-14T15:24:01;3.20;99.90
11446;DHT22;5779;64.178;15.432;2022-11-14T15:26:50;3.00;99.90
11446;DHT22;5779;64.178;15.432;2022-11-14T15:29:44;2.80;99.90
11446;DHT22;5779;64.178;15.432;2022-11-14T15:32:31;2.90;99.90
11446;DHT22;5779;64.178;15.432;2022-11-14T15:35:30;2.50;99.90
11446;DHT22;5779;64.178;15.432;2022-11-14T15:38:19;2.60;99.90
11446;DHT22;5779;64.178;15.432;2022-11-14T15:41:16;2.80;99.90
11446;DHT22;5779;64.178;15.432;2022-11-14T15:44:26;2.90;99.90
11446;DHT22;5779;64.178;15.432;2022-11-14T15:47:16;2.80;99.90
11446;DHT22;5779;64.178;15.432;2022-11-14T15:50:18;2.90;99.90
11446;DHT22;5779;64.178;15.432;2022-11-14T15:53:17;2.80;99.90
11446;DHT22;5779;64.178;15.432;2022-11-14T15:56:10;2.80;99.90
11446;DHT22;5779;64.178;15.432;2022-11-14T15:58:57;2.80;99.90
11446;DHT22;5779;64.178;15.432;2022-11-14T16:01:48;2.80;99.90
11446;DHT22;5779;64.178;15.432;2022-11-14T16:04:36;2.70;99.90
11446;DHT22;5779;64.178;15.432;2022-11-14T16:07:23;2.60;99.90
11446;DHT22;5779;64.178;15.432;2022-11-14T16:10:13;2.50;99.90
11446;DHT22;5779;64.178;15.432;2022-11-14T16:13:00;2.70;99.90
11446;DHT22;5779;64.178;15.432;2022-11-14T16:15:47;2.80;99.90
11446;DHT22;5779;64.178;15.432;2022-11-14T16:18:35;2.80;99.90
11446;DHT22;5779;64.178;15.432;2022-11-14T16:21:22;2.90;99.90
11446;DHT22;5779;64.178;15.432;2022-11-14T16:24:17;2.90;99.90
11446;DHT22;5779;64.178;15.432;2022-11-14T16:27:05;2.60;99.90
11446;DHT22;5779;64.178;15.432;2022-11-14T16:29:52;2.70;99.90
11446;DHT22;5779;64.178;15.432;2022-11-14T16:32:39;2.70;99.90
11446;DHT22;5779;64.178;15.432;2022-11-14T16:35:27;2.70;99.90
11446;DHT22;5779;64.178;15.432;2022-11-14T16:38:14;2.40;99.90
11446;DHT22;5779;64.178;15.432;2022-11-14T16:41:01;2.30;99.90
11446;DHT22;5779;64.178;15.432;2022-11-14T16:43:53;2.40;99.90
11446;DHT22;5779;64.178;15.432;2022-11-14T16:46:40;2.60;99.90
11446;DHT22;5779;64.178;15.432;2022-11-14T16:49:27;2.90;99.90
11446;DHT22;5779;64.178;15.432;2022-11-14T16:52:15;3.10;99.90
11446;DHT22;5779;64.178;15.432;2022-11-14T16:55:03;3.10;99.90
11446;DHT22;5779;64.178;15.432;2022-11-14T16:57:50;3.30;99.90
11446;DHT22;5779;64.178;15.432;2022-11-14T17:00:37;3.10;99.90
11446;DHT22;5779;64.178;15.432;2022-11-14T17:03:27;3.10;99.90
11446;DHT22;5779;64.178;15.432;2022-11-14T17:06:14;3.10;99.90
11446;DHT22;5779;64.178;15.432;2022-11-14T17:09:03;3.00;99.90
11446;DHT22;5779;64.178;15.432;2022-11-14T17:11:50;2.80;99.90
11446;DHT22;5779;64.178;15.432;2022-11-14T17:14:36;2.70;99.90
11446;DHT22;5779;64.178;15.432;2022-11-14T17:17:23;3.00;99.90
11446;DHT22;5779;64.178;15.432;2022-11-14T17:20:10;2.90;99.90
11446;DHT22;5779;64.178;15.432;2022-11-14T17:22:57;2.90;99.90
11446;DHT22;5779;64.178;15.432;2022-11-14T17:25:46;2.80;99.90
11446;DHT22;5779;64.178;15.432;2022-11-14T17:28:33;2.70;99.90
11446;DHT22;5779;64.178;15.432;2022-11-14T17:31:20;2.60;99.90
11446;DHT22;5779;64.178;15.432;2022-11-14T17:34:08;2.50;99.90
11446;DHT22;5779;64.178;15.432;2022-11-14T17:36:55;2.60;99.90
11446;DHT22;5779;64.178;15.432;2022-11-14T17:39:42;2.80;99.90
11446;DHT22;5779;64.178;15.432;2022-11-14T17:42:30;2.90;99.90
11446;DHT22;5779;64.178;15.432;2022-11-14T17:45:17;3.00;99.90
11446;DHT22;5779;64.178;15.432;2022-11-14T17:48:05;3.10;99.90
11446;DHT22;5779;64.178;15.432;2022-11-14T17:50:51;3.10;99.90
11446;DHT22;5779;64.178;15.432;2022-11-14T17:53:39;3.20;99.90
11446;DHT22;5779;64.178;15.432;2022-11-14T17:56:26;3.30;99.90
11446;DHT22;5779;64.178;15.432;2022-11-14T17:59:14;3.10;99.90
11446;DHT22;5779;64.178;15.432;2022-11-14T18:02:02;3.10;99.90
11446;DHT22;5779;64.178;15.432;2022-11-14T18:04:49;3.20;99.90
11446;DHT22;5779;64.178;15.432;2022-11-14T18:07:35;3.20;99.90
11446;DHT22;5779;64.178;15.432;2022-11-14T18:10:22;3.50;99.90
11446;DHT22;5779;64.178;15.432;2022-11-14T18:13:09;3.40;99.90
11446;DHT22;5779;64.178;15.432;2022-11-14T18:16:01;3.40;99.90
11446;DHT22;5779;64.178;15.432;2022-11-14T18:18:48;3.30;99.90
11446;DHT22;5779;64.178;15.432;2022-11-14T18:21:36;3.10;99.90
11446;DHT22;5779;64.178;15.432;2022-11-14T18:24:27;2.90;99.90
11446;DHT22;5779;64.178;15.432;2022-11-14T18:27:13;2.70;99.90
11446;DHT22;5779;64.178;15.432;2022-11-14T18:30:00;2.70;99.90